Time;durP1;ratioP1;P1;durP2;ratioP2;P2;SDS_P1;SDS_P2;PMS_P1;PMS_P2;Temp;Humidity;BMP_temperature;BMP_pressure;BME280_temperature;BME280_humidity;BME280_pressure;Samples;Min_cycle;Max_cycle;Signal;HPM_P1;HPM_P2
2021/07/17 00:01:49;;;;;;;133.93;57.15;;;16.00;99.90;;;;;;4994427;28;20160;-87
2021/07/17 00:04:36;;;;;;;139.02;57.45;;;16.00;99.90;;;;;;4995322;28;20050;-86
2021/07/17 00:07:24;;;;;;;129.30;54.53;;;16.00;99.90;;;;;;5003670;28;20479;-86
2021/07/17 00:10:23;;;;;;;123.40;55.35;;;16.00;99.90;;;;;;4980378;28;20054;-89
2021/07/17 00:13:11;;;;;;;122.70;53.70;;;16.00;99.90;;;;;;5005913;28;20132;-87
2021/07/17 00:15:59;;;;;;;118.13;54.88;;;16.00;99.90;;;;;;4977701;28;20056;-86
2021/07/17 00:18:46;;;;;;;113.20;51.65;;;16.10;99.90;;;;;;4993006;28;20464;-89
2021/07/17 00:21:35;;;;;;;119.80;55.17;;;16.10;99.90;;;;;;4991663;28;20125;-86
2021/07/17 00:24:24;;;;;;;116.43;54.75;;;16.00;99.90;;;;;;4994318;28;20201;-89
2021/07/17 00:27:11;;;;;;;127.55;52.85;;;16.00;99.90;;;;;;4991966;28;20052;-88
2021/07/17 00:29:58;;;;;;;122.55;54.17;;;16.00;99.90;;;;;;4997217;28;20074;-87
2021/07/17 00:32:46;;;;;;;113.63;51.65;;;16.00;99.90;;;;;;4990878;28;20124;-89
2021/07/17 00:35:36;;;;;;;122.95;53.58;;;15.90;99.90;;;;;;5011044;28;20138;-90
2021/07/17 00:38:23;;;;;;;113.68;52.92;;;15.90;99.90;;;;;;4999018;28;20077;-88
2021/07/17 00:41:10;;;;;;;129.48;56.25;;;15.90;99.90;;;;;;4982764;28;20127;-86
2021/07/17 00:43:58;;;;;;;125.32;55.47;;;15.90;99.90;;;;;;4992726;28;20116;-88
2021/07/17 00:46:48;;;;;;;136.43;56.80;;;16.00;99.90;;;;;;4968817;28;20120;-88
2021/07/17 00:49:36;;;;;;;120.05;55.60;;;16.00;99.90;;;;;;4992930;28;20058;-88
2021/07/17 00:52:26;;;;;;;124.95;53.53;;;15.90;99.90;;;;;;4991937;28;20107;-85
2021/07/17 00:55:14;;;;;;;114.88;52.78;;;15.90;99.90;;;;;;4993073;28;20188;-87
2021/07/17 00:58:02;;;;;;;118.63;55.03;;;15.90;99.90;;;;;;5000736;28;20136;-89
2021/07/17 01:00:51;;;;;;;112.45;52.72;;;15.90;99.90;;;;;;4989922;28;20422;-88
2021/07/17 01:03:39;;;;;;;113.13;53.38;;;15.90;99.90;;;;;;4995778;28;20046;-86
2021/07/17 01:06:31;;;;;;;116.25;53.47;;;15.90;99.90;;;;;;4984366;28;20046;-88
2021/07/17 01:09:19;;;;;;;118.68;53.45;;;15.90;99.90;;;;;;4996223;28;20054;-87
2021/07/17 01:12:09;;;;;;;117.80;54.45;;;15.90;99.90;;;;;;4972172;28;20058;-90
2021/07/17 01:14:57;;;;;;;108.70;52.97;;;15.80;99.90;;;;;;5000026;28;20148;-90
2021/07/17 01:17:45;;;;;;;111.82;52.55;;;15.90;99.90;;;;;;5005300;28;20042;-88
2021/07/17 01:20:34;;;;;;;107.13;50.05;;;15.80;99.90;;;;;;4989542;28;20053;-87
2021/07/17 01:23:21;;;;;;;110.10;51.35;;;15.90;99.90;;;;;;4996404;28;20057;-88
2021/07/17 01:26:09;;;;;;;102.80;52.67;;;15.80;99.90;;;;;;4973073;28;20594;-87
2021/07/17 01:28:56;;;;;;;113.40;53.25;;;15.80;99.90;;;;;;4998650;28;20475;-88
2021/07/17 01:31:44;;;;;;;111.57;52.65;;;15.80;99.90;;;;;;4998004;28;20098;-89
2021/07/17 01:34:31;;;;;;;116.38;53.03;;;15.70;99.90;;;;;;4992944;28;20053;-88
2021/07/17 01:37:19;;;;;;;113.28;52.92;;;15.80;99.90;;;;;;5007131;28;20112;-87
2021/07/17 01:40:18;;;;;;;114.38;54.05;;;15.70;99.90;;;;;;5004188;28;20065;-87
2021/07/17 01:43:05;;;;;;;110.70;53.95;;;15.80;99.90;;;;;;4993935;28;20050;-88
2021/07/17 01:45:59;;;;;;;126.00;53.85;;;15.80;99.90;;;;;;4996574;28;20060;-89
2021/07/17 01:48:53;;;;;;;116.47;53.15;;;15.80;99.90;;;;;;5011396;28;20114;-90
2021/07/17 01:51:40;;;;;;;108.97;51.35;;;15.80;99.90;;;;;;4989929;28;20174;-88
2021/07/17 01:54:34;;;;;;;109.50;51.42;;;15.80;99.90;;;;;;4991799;28;20378;-88
2021/07/17 01:57:24;;;;;;;103.20;50.78;;;15.80;99.90;;;;;;4994308;28;20530;-89
2021/07/17 02:00:12;;;;;;;103.00;50.92;;;15.80;99.90;;;;;;4965693;28;20074;-91
2021/07/17 02:03:03;;;;;;;120.63;52.70;;;15.80;99.90;;;;;;4981625;28;20148;-90
2021/07/17 02:05:52;;;;;;;117.85;52.20;;;15.80;99.90;;;;;;4995835;28;20046;-88
2021/07/17 02:08:41;;;;;;;109.20;52.72;;;15.80;99.90;;;;;;4986868;28;20066;-87
2021/07/17 02:11:28;;;;;;;93.70;47.83;;;15.80;99.90;;;;;;4986051;28;20038;-90
2021/07/17 02:14:15;;;;;;;94.07;46.40;;;15.80;99.90;;;;;;5003964;28;20436;-86
2021/07/17 02:17:04;;;;;;;97.05;47.40;;;15.80;99.90;;;;;;5002240;28;20384;-90
2021/07/17 02:19:52;;;;;;;91.97;46.67;;;15.90;99.90;;;;;;4998489;28;20216;-87
2021/07/17 02:22:39;;;;;;;90.07;45.78;;;15.90;99.90;;;;;;4985722;28;20125;-87
2021/07/17 02:25:27;;;;;;;86.65;43.42;;;15.90;99.90;;;;;;4980301;28;20152;-91
2021/07/17 02:28:14;;;;;;;83.40;44.20;;;15.90;99.90;;;;;;5007963;28;20132;-88
2021/07/17 02:31:04;;;;;;;74.18;41.15;;;15.90;99.90;;;;;;4996040;28;20054;-87
2021/07/17 02:33:51;;;;;;;82.47;42.67;;;15.90;99.90;;;;;;4978548;28;20085;-89
2021/07/17 02:36:39;;;;;;;81.70;43.28;;;15.90;99.90;;;;;;4981007;28;20489;-88
2021/07/17 02:39:26;;;;;;;78.25;43.38;;;15.90;99.90;;;;;;4987223;28;20098;-90
2021/07/17 02:42:14;;;;;;;87.18;44.05;;;15.90;99.90;;;;;;4994150;28;20073;-87
2021/07/17 02:45:07;;;;;;;84.40;43.60;;;15.90;99.90;;;;;;4993313;28;20050;-88
2021/07/17 02:47:54;;;;;;;83.80;42.83;;;15.90;99.90;;;;;;4984209;28;20297;-88
2021/07/17 02:50:41;;;;;;;84.07;43.83;;;15.90;99.90;;;;;;4980485;28;20468;-88
2021/07/17 02:53:29;;;;;;;83.32;42.85;;;15.90;99.90;;;;;;4993370;28;20046;-88
2021/07/17 02:56:16;;;;;;;77.03;41.90;;;15.90;99.90;;;;;;4993557;28;20089;-89
2021/07/17 02:59:04;;;;;;;76.30;41.63;;;15.90;99.90;;;;;;4977491;28;20197;-87
2021/07/17 03:01:51;;;;;;;86.40;45.47;;;15.90;99.90;;;;;;5006518;28;20545;-87
2021/07/17 03:04:38;;;;;;;84.03;43.63;;;15.90;99.90;;;;;;4998690;28;20081;-89
2021/07/17 03:07:28;;;;;;;86.07;44.38;;;15.80;99.90;;;;;;4988753;28;20089;-89
2021/07/17 03:10:18;;;;;;;95.75;45.22;;;15.80;99.90;;;;;;4974658;28;20097;-89
2021/07/17 03:13:07;;;;;;;85.28;43.60;;;15.80;99.90;;;;;;4980235;28;20078;-88
2021/07/17 03:15:57;;;;;;;81.97;43.20;;;15.80;99.90;;;;;;4993959;28;20113;-85
2021/07/17 03:18:47;;;;;;;96.60;45.42;;;15.80;99.90;;;;;;4994405;28;20118;-89
2021/07/17 03:21:36;;;;;;;87.97;45.65;;;15.80;99.90;;;;;;4977550;28;20121;-87
2021/07/17 03:24:26;;;;;;;88.97;45.08;;;15.80;99.90;;;;;;4980646;28;20181;-87
2021/07/17 03:27:14;;;;;;;80.28;42.80;;;15.80;99.90;;;;;;4998958;28;20471;-86
2021/07/17 03:30:05;;;;;;;83.68;45.05;;;15.80;99.90;;;;;;4991481;28;20062;-89
2021/07/17 03:32:52;;;;;;;77.20;41.50;;;15.70;99.90;;;;;;4986271;28;20054;-89
2021/07/17 03:35:39;;;;;;;85.53;43.17;;;15.70;99.90;;;;;;4992792;28;20099;-91
2021/07/17 03:38:26;;;;;;;78.28;42.03;;;15.80;99.90;;;;;;4995915;28;20043;-89
2021/07/17 03:41:16;;;;;;;74.47;40.67;;;15.70;99.90;;;;;;4981817;28;20121;-90
2021/07/17 03:44:04;;;;;;;83.25;42.63;;;15.70;99.90;;;;;;4998614;28;20070;-90
2021/07/17 03:46:52;;;;;;;75.93;42.88;;;15.70;99.90;;;;;;4992891;28;20109;-88
2021/07/17 03:49:42;;;;;;;74.70;41.67;;;15.70;99.90;;;;;;4997858;28;20057;-89
2021/07/17 03:52:29;;;;;;;78.90;41.65;;;15.70;99.90;;;;;;4983131;28;20200;-89
2021/07/17 03:55:17;;;;;;;81.63;42.83;;;15.70;99.90;;;;;;4995507;28;20125;-88
2021/07/17 03:58:04;;;;;;;76.65;43.70;;;15.70;99.90;;;;;;4977727;28;20050;-89
2021/07/17 04:00:52;;;;;;;72.80;40.88;;;15.70;99.90;;;;;;4959206;28;20093;-89
2021/07/17 04:03:42;;;;;;;77.00;40.33;;;15.70;99.90;;;;;;4992929;28;20131;-88
2021/07/17 04:06:33;;;;;;;81.28;44.28;;;15.70;99.90;;;;;;4999716;28;20042;-88
2021/07/17 04:09:21;;;;;;;88.95;45.22;;;15.70;99.90;;;;;;4994890;28;20221;-88
2021/07/17 04:12:08;;;;;;;78.93;42.50;;;15.70;99.90;;;;;;4992564;28;20140;-88
2021/07/17 04:14:56;;;;;;;74.15;41.40;;;15.70;99.90;;;;;;4998536;28;20515;-88
2021/07/17 04:17:43;;;;;;;82.60;44.65;;;15.70;99.90;;;;;;4997542;28;20179;-89
2021/07/17 04:20:32;;;;;;;77.80;42.78;;;15.70;99.90;;;;;;4976397;28;20085;-87
2021/07/17 04:23:20;;;;;;;88.03;43.50;;;15.70;99.90;;;;;;4982044;28;20068;-88
2021/07/17 04:26:08;;;;;;;82.25;42.75;;;15.70;99.90;;;;;;4969534;28;20050;-87
2021/07/17 04:28:57;;;;;;;79.90;42.00;;;15.70;99.90;;;;;;4979964;28;20193;-88
2021/07/17 04:31:47;;;;;;;80.45;41.83;;;15.70;99.90;;;;;;4982048;28;20107;-88
2021/07/17 04:34:35;;;;;;;74.38;41.45;;;15.70;99.90;;;;;;4991318;28;20498;-89
2021/07/17 04:37:22;;;;;;;75.40;39.90;;;15.70;99.90;;;;;;4995181;28;20463;-88
2021/07/17 04:40:10;;;;;;;76.38;41.45;;;15.70;99.90;;;;;;4976789;28;20084;-85
2021/07/17 04:42:57;;;;;;;75.95;39.55;;;15.70;99.90;;;;;;4997081;28;20470;-89
2021/07/17 04:45:44;;;;;;;73.65;40.20;;;15.70;99.90;;;;;;5005000;28;20050;-88
2021/07/17 04:48:31;;;;;;;76.28;40.10;;;15.70;99.90;;;;;;5006845;28;20046;-89
2021/07/17 04:51:19;;;;;;;71.72;38.75;;;15.80;99.90;;;;;;4994500;28;20476;-88
2021/07/17 04:54:06;;;;;;;64.95;39.17;;;15.80;99.90;;;;;;4977845;28;20145;-87
2021/07/17 04:56:54;;;;;;;64.20;37.28;;;15.90;99.90;;;;;;4993046;28;20197;-87
2021/07/17 04:59:44;;;;;;;68.63;38.95;;;15.90;99.90;;;;;;4995352;28;20203;-88
2021/07/17 05:02:48;;;;;;;64.13;37.63;;;16.00;99.90;;;;;;4990981;28;20360;-88
2021/07/17 05:05:35;;;;;;;66.72;37.42;;;16.00;99.90;;;;;;4987762;28;20097;-88
2021/07/17 05:08:23;;;;;;;70.30;39.33;;;16.00;99.90;;;;;;4981802;28;20180;-87
2021/07/17 05:11:10;;;;;;;69.47;38.90;;;16.10;99.90;;;;;;4998509;28;20109;-86
2021/07/17 05:13:57;;;;;;;57.58;36.08;;;16.10;99.90;;;;;;4991296;28;20476;-89
2021/07/17 05:16:47;;;;;;;64.50;37.05;;;16.10;99.90;;;;;;4986192;28;20042;-90
2021/07/17 05:24:06;;;;;;;63.97;37.60;;;16.10;99.90;;;;;;4994321;28;20057;-90
2021/07/17 05:27:41;;;;;;;67.75;37.65;;;16.10;99.90;;;;;;4936866;29;20404;-89
2021/07/17 05:55:09;;;;;;;70.10;36.65;;;16.20;99.90;;;;;;4928590;29;20172;-84
2021/07/17 05:57:57;;;;;;;63.08;35.55;;;16.20;99.90;;;;;;4941313;28;20047;-87
2021/07/17 06:00:45;;;;;;;67.60;35.42;;;16.30;99.90;;;;;;4994539;28;20101;-85
2021/07/17 06:03:32;;;;;;;63.95;34.95;;;16.30;99.90;;;;;;4995663;28;20144;-84
2021/07/17 06:06:22;;;;;;;56.72;34.25;;;16.30;99.90;;;;;;4992188;28;20406;-83
2021/07/17 06:09:11;;;;;;;60.80;33.55;;;16.40;99.90;;;;;;4994325;28;20321;-85
2021/07/17 06:11:58;;;;;;;52.13;31.73;;;16.40;99.90;;;;;;4993701;28;20387;-84
2021/07/17 06:14:49;;;;;;;52.20;31.05;;;16.40;99.90;;;;;;4995090;28;20053;-84
2021/07/17 06:17:36;;;;;;;53.50;31.23;;;16.50;99.90;;;;;;4994231;28;20046;-84
2021/07/17 06:20:24;;;;;;;46.78;30.13;;;16.50;99.90;;;;;;4994227;28;20459;-86
2021/07/17 06:23:11;;;;;;;51.80;32.60;;;16.60;99.90;;;;;;4993337;28;20045;-84
2021/07/17 06:25:59;;;;;;;50.10;31.27;;;16.60;99.90;;;;;;4993702;28;20132;-86
2021/07/17 06:28:46;;;;;;;49.28;30.25;;;16.60;99.90;;;;;;4986986;28;20527;-83
2021/07/17 06:31:33;;;;;;;52.88;29.35;;;16.70;99.90;;;;;;4979892;28;20534;-83
2021/07/17 06:34:21;;;;;;;52.40;28.60;;;16.70;99.90;;;;;;4991755;28;20468;-84
2021/07/17 06:37:08;;;;;;;47.65;29.77;;;16.80;99.90;;;;;;4994815;28;20051;-85
2021/07/17 06:39:55;;;;;;;50.97;29.70;;;16.80;99.90;;;;;;4994075;28;20134;-85
2021/07/17 06:42:48;;;;;;;47.53;29.27;;;16.80;99.90;;;;;;4977335;28;20132;-86
2021/07/17 06:45:37;;;;;;;46.95;29.63;;;16.80;99.90;;;;;;4991682;28;20475;-86
2021/07/17 06:48:24;;;;;;;52.80;30.38;;;16.80;99.90;;;;;;4983592;28;20435;-84
2021/07/17 06:51:13;;;;;;;51.25;29.63;;;16.80;99.90;;;;;;4993837;28;20098;-86
2021/07/17 06:54:01;;;;;;;55.80;30.35;;;16.80;99.90;;;;;;4986502;28;20125;-84
2021/07/17 06:56:48;;;;;;;49.95;29.08;;;16.70;99.90;;;;;;4981787;28;20440;-89
2021/07/17 06:59:36;;;;;;;46.33;27.15;;;16.80;99.90;;;;;;4973115;28;20592;-90
2021/07/17 07:02:24;;;;;;;42.55;27.02;;;16.90;99.90;;;;;;4993972;28;20069;-89
2021/07/17 07:05:13;;;;;;;43.55;27.33;;;17.00;99.90;;;;;;4992187;28;20046;-90
2021/07/17 07:08:00;;;;;;;47.08;28.00;;;16.90;99.90;;;;;;4982539;28;20341;-90
2021/07/17 07:10:48;;;;;;;43.95;28.25;;;17.00;99.90;;;;;;4980278;28;20058;-89
2021/07/17 07:13:36;;;;;;;57.30;28.08;;;17.00;99.90;;;;;;4985486;28;20078;-90
2021/07/17 07:16:26;;;;;;;46.15;27.80;;;16.90;99.90;;;;;;5003589;28;20078;-91
2021/07/17 07:19:13;;;;;;;48.42;27.08;;;17.00;99.90;;;;;;4996999;28;20042;-89
2021/07/17 07:22:01;;;;;;;42.70;27.55;;;17.00;99.90;;;;;;4982718;28;20581;-91
2021/07/17 07:24:49;;;;;;;52.33;29.33;;;17.20;99.90;;;;;;4998185;28;20050;-89
2021/07/17 07:27:36;;;;;;;56.90;29.08;;;17.20;99.90;;;;;;4991934;28;20116;-89
2021/07/17 07:30:26;;;;;;;49.08;29.35;;;17.10;99.90;;;;;;4980980;28;20192;-89
2021/07/17 07:33:14;;;;;;;65.68;32.15;;;17.10;99.90;;;;;;4997493;28;20479;-90
2021/07/17 07:36:01;;;;;;;58.65;30.02;;;17.10;99.90;;;;;;4995725;28;20135;-89
2021/07/17 07:38:51;;;;;;;52.63;31.00;;;17.30;99.90;;;;;;4993166;28;20053;-90
2021/07/17 07:41:38;;;;;;;45.55;28.40;;;17.40;99.90;;;;;;4986580;28;20081;-90
2021/07/17 07:44:25;;;;;;;46.22;28.77;;;17.50;99.90;;;;;;4985155;28;20057;-91
2021/07/17 07:47:12;;;;;;;49.88;28.10;;;17.70;99.90;;;;;;4984863;28;20436;-86
2021/07/17 07:50:00;;;;;;;48.53;27.58;;;17.70;99.90;;;;;;5003600;28;20082;-84
2021/07/17 07:52:47;;;;;;;48.35;27.40;;;17.70;99.90;;;;;;4991858;28;20050;-86
2021/07/17 07:55:37;;;;;;;42.08;25.63;;;17.70;99.90;;;;;;4993104;28;20125;-85
2021/07/17 07:58:24;;;;;;;44.03;26.23;;;17.70;99.90;;;;;;4987687;28;20042;-86
2021/07/17 08:01:11;;;;;;;44.60;26.60;;;17.80;99.90;;;;;;4997680;28;20380;-87
2021/07/17 08:03:59;;;;;;;40.55;23.48;;;17.80;99.90;;;;;;4992070;28;20121;-85
2021/07/17 08:06:46;;;;;;;36.88;25.35;;;18.10;99.90;;;;;;4988574;28;20038;-85
2021/07/17 08:09:33;;;;;;;37.97;24.52;;;18.10;99.90;;;;;;4981354;28;20069;-88
2021/07/17 08:12:20;;;;;;;39.60;23.92;;;18.20;99.90;;;;;;4978025;28;20129;-86
2021/07/17 08:15:10;;;;;;;35.38;23.73;;;18.20;99.90;;;;;;4982590;28;20050;-85
2021/07/17 08:17:57;;;;;;;36.78;24.33;;;18.20;99.90;;;;;;4992307;28;20136;-85
2021/07/17 08:20:45;;;;;;;39.13;24.50;;;18.10;99.90;;;;;;4989805;28;20165;-85
2021/07/17 08:23:32;;;;;;;41.50;26.98;;;18.10;99.90;;;;;;4985929;28;20132;-90
2021/07/17 08:26:22;;;;;;;40.92;25.98;;;18.10;99.90;;;;;;4987258;28;20053;-87
2021/07/17 08:29:09;;;;;;;45.47;27.73;;;18.00;99.90;;;;;;4989396;28;20185;-88
2021/07/17 08:31:56;;;;;;;42.17;28.45;;;18.00;99.90;;;;;;4993163;28;20046;-86
2021/07/17 08:34:44;;;;;;;41.88;29.02;;;17.90;99.90;;;;;;4992082;28;20049;-87
2021/07/17 08:37:34;;;;;;;50.17;28.90;;;18.00;99.90;;;;;;4977431;28;20132;-87
2021/07/17 08:40:24;;;;;;;49.00;28.52;;;18.00;99.90;;;;;;4986257;28;20051;-88
2021/07/17 08:43:11;;;;;;;42.15;28.42;;;18.00;99.90;;;;;;4979234;28;20073;-88
2021/07/17 08:45:59;;;;;;;43.80;27.05;;;18.00;99.90;;;;;;4995747;28;20109;-85
2021/07/17 08:48:49;;;;;;;42.00;27.85;;;18.10;99.90;;;;;;4990718;28;20053;-88
2021/07/17 08:51:38;;;;;;;48.40;27.25;;;18.20;99.90;;;;;;4992359;28;20078;-85
2021/07/17 08:54:26;;;;;;;38.55;24.95;;;18.30;99.90;;;;;;4992441;28;20054;-84
2021/07/17 08:57:14;;;;;;;35.25;25.42;;;18.40;99.90;;;;;;4987028;28;20051;-87
2021/07/17 09:00:07;;;;;;;34.25;25.40;;;18.40;99.90;;;;;;4990346;28;20427;-87
2021/07/17 09:03:17;;;;;;;38.30;24.17;;;18.40;99.90;;;;;;4988136;28;20057;-87
2021/07/17 09:06:07;;;;;;;37.85;24.50;;;18.30;99.90;;;;;;4998470;28;20054;-88
2021/07/17 09:08:54;;;;;;;40.55;25.67;;;18.30;99.90;;;;;;4981890;28;20401;-88
2021/07/17 09:11:41;;;;;;;35.05;25.50;;;18.20;99.90;;;;;;4979288;28;20117;-88
2021/07/17 09:14:41;;;;;;;38.88;24.48;;;18.30;99.90;;;;;;4990349;28;20197;-87
2021/07/17 09:17:30;;;;;;;38.58;24.92;;;18.40;99.90;;;;;;4993829;28;20049;-88
2021/07/17 09:20:20;;;;;;;31.40;21.15;;;18.80;99.90;;;;;;4998456;28;20125;-89
2021/07/17 09:23:09;;;;;;;32.40;21.10;;;19.20;99.90;;;;;;4999782;28;20073;-87
2021/07/17 09:25:57;;;;;;;37.28;20.40;;;19.60;99.90;;;;;;5002220;28;20065;-89
2021/07/17 09:28:59;;;;;;;37.63;22.88;;;19.80;99.90;;;;;;4993146;28;20094;-88
2021/07/17 09:31:49;;;;;;;29.90;20.10;;;19.80;99.90;;;;;;4987508;28;20379;-87
2021/07/17 09:34:39;;;;;;;30.63;20.45;;;20.00;99.90;;;;;;4987083;28;20491;-89
2021/07/17 09:37:26;;;;;;;32.42;21.23;;;20.30;99.90;;;;;;4997389;28;20157;-85
2021/07/17 09:40:13;;;;;;;26.17;19.25;;;20.50;99.90;;;;;;4979894;28;20377;-87
2021/07/17 09:43:03;;;;;;;31.83;21.55;;;20.80;99.90;;;;;;4973916;28;20121;-90
2021/07/17 09:45:50;;;;;;;34.22;20.38;;;21.00;99.90;;;;;;4999082;28;20046;-88
2021/07/17 09:48:38;;;;;;;33.10;20.55;;;21.10;99.90;;;;;;4993531;28;20421;-87
2021/07/17 09:51:28;;;;;;;32.25;21.05;;;21.20;99.90;;;;;;4997774;28;20203;-89
2021/07/17 09:54:17;;;;;;;30.63;19.88;;;21.20;99.90;;;;;;4993570;28;20074;-88
2021/07/17 09:57:07;;;;;;;30.92;20.00;;;21.20;99.90;;;;;;4997491;28;20047;-86
2021/07/17 10:00:24;;;;;;;32.40;19.02;;;21.20;99.90;;;;;;4989802;28;20443;-86
2021/07/17 10:03:17;;;;;;;33.60;19.58;;;21.20;99.90;;;;;;4982703;28;20050;-85
2021/07/17 10:06:07;;;;;;;33.30;19.70;;;21.20;99.90;;;;;;4996544;28;20189;-84
2021/07/17 10:08:54;;;;;;;28.63;18.92;;;21.40;99.90;;;;;;4985682;28;20042;-84
2021/07/17 10:15:56;;;;;;;27.25;18.85;;;21.00;99.90;;;;;;4994393;28;20078;-86
2021/07/17 10:39:00;;;;;;;30.60;19.38;;;21.00;99.90;;;;;;6105222;23;20028;-87
2021/07/17 10:41:50;;;;;;;28.77;18.55;;;21.30;99.90;;;;;;4941842;28;20066;-85
2021/07/17 10:44:49;;;;;;;27.05;17.70;;;21.40;99.90;;;;;;4934849;28;20132;-85
2021/07/17 10:47:38;;;;;;;26.92;16.63;;;21.50;99.90;;;;;;4958378;28;20097;-85
2021/07/17 10:50:35;;;;;;;27.55;16.75;;;21.60;99.90;;;;;;4969615;28;20066;-90
2021/07/17 10:53:41;;;;;;;26.67;17.35;;;22.00;99.90;;;;;;4952507;28;20376;-90
2021/07/17 10:56:28;;;;;;;26.30;16.27;;;22.30;99.90;;;;;;4941448;28;20121;-87
2021/07/17 10:59:16;;;;;;;28.52;17.83;;;22.80;99.90;;;;;;4942644;29;20066;-88
2021/07/17 11:02:07;;;;;;;27.23;17.10;;;22.50;99.90;;;;;;4954088;28;20105;-89
2021/07/17 11:05:00;;;;;;;29.30;18.55;;;22.10;99.90;;;;;;4934471;28;20187;-89
2021/07/17 11:07:51;;;;;;;33.20;18.35;;;21.60;99.90;;;;;;4942826;28;20062;-88
2021/07/17 11:10:43;;;;;;;29.60;18.50;;;21.50;99.90;;;;;;4968277;28;20074;-88
2021/07/17 11:13:35;;;;;;;29.67;19.27;;;21.40;99.90;;;;;;4937647;29;20389;-90
2021/07/17 11:16:42;;;;;;;;;;;21.50;99.90;;;;;;4965147;28;20078;-89
2021/07/17 11:19:31;;;;;;;27.35;17.42;;;21.50;99.90;;;;;;4949183;28;19973;-89
2021/07/17 11:22:19;;;;;;;25.58;14.85;;;21.70;99.90;;;;;;4953280;28;20043;-90
2021/07/17 11:25:08;;;;;;;23.70;16.10;;;22.30;99.90;;;;;;4945002;28;20207;-88
2021/07/17 11:27:57;;;;;;;25.92;15.40;;;22.70;99.90;;;;;;4953651;28;20070;-88
2021/07/17 11:30:44;;;;;;;21.65;14.75;;;23.20;99.90;;;;;;4950084;28;20163;-88
2021/07/17 11:33:35;;;;;;;24.70;15.73;;;23.70;99.90;;;;;;4952055;28;20071;-87
2021/07/17 11:36:26;;;;;;;29.58;16.00;;;23.70;99.90;;;;;;4949094;28;20039;-88
2021/07/17 11:39:18;;;;;;;21.45;15.50;;;23.40;99.90;;;;;;4941227;28;20059;-90
2021/07/17 11:42:10;;;;;;;24.48;16.30;;;23.10;99.90;;;;;;4949604;28;20058;-89
2021/07/17 11:44:58;;;;;;;26.58;16.85;;;22.70;99.90;;;;;;4940979;29;20095;-90
2021/07/17 11:47:46;;;;;;;25.17;17.00;;;22.50;99.90;;;;;;4935896;28;20070;-89
2021/07/17 11:50:33;;;;;;;23.48;16.92;;;22.50;99.90;;;;;;4944361;28;20054;-89
2021/07/17 11:53:23;;;;;;;32.20;17.83;;;22.50;99.90;;;;;;4936228;29;20608;-88
2021/07/17 11:56:10;;;;;;;25.83;16.42;;;22.30;99.90;;;;;;4955087;28;20070;-89
2021/07/17 11:59:18;;;;;;;23.20;15.90;;;22.10;99.90;;;;;;4933428;28;20055;-87
2021/07/17 12:02:10;;;;;;;25.58;17.40;;;21.90;99.90;;;;;;4952633;28;20272;-91
2021/07/17 12:05:02;;;;;;;23.58;16.88;;;21.70;99.90;;;;;;4938284;29;20070;-89
2021/07/17 12:07:53;;;;;;;21.42;16.38;;;21.80;99.90;;;;;;4946262;28;20063;-88
2021/07/17 12:10:40;;;;;;;24.17;16.33;;;21.60;99.90;;;;;;4926503;29;20047;-91
2021/07/17 12:13:27;;;;;;;25.25;15.63;;;21.70;99.90;;;;;;4925486;29;20129;-91
2021/07/17 12:16:20;;;;;;;27.58;17.40;;;22.00;99.90;;;;;;4938085;28;20438;-88
2021/07/17 12:19:19;;;;;;;24.05;15.15;;;22.60;99.90;;;;;;4951778;28;20166;-89
2021/07/17 12:22:07;;;;;;;19.88;14.60;;;23.30;99.90;;;;;;4955571;28;20628;-88
2021/07/17 12:25:06;;;;;;;24.38;15.57;;;23.40;99.90;;;;;;4938119;29;20512;-88
2021/07/17 12:27:58;;;;;;;21.63;14.65;;;23.30;99.90;;;;;;4945507;28;20054;-88
2021/07/17 12:30:48;;;;;;;25.30;15.45;;;23.10;99.90;;;;;;4950142;29;20048;-88
2021/07/17 12:33:39;;;;;;;23.65;15.05;;;23.30;99.90;;;;;;4956858;28;20474;-91
2021/07/17 12:36:29;;;;;;;22.92;15.00;;;24.10;99.90;;;;;;4945793;29;20043;-87
2021/07/17 12:39:21;;;;;;;21.67;15.63;;;24.60;99.90;;;;;;4949776;29;20122;-90
2021/07/17 12:42:09;;;;;;;21.38;15.82;;;24.40;99.90;;;;;;4948079;28;20078;-88
2021/07/17 12:45:08;;;;;;;22.50;15.82;;;24.10;99.90;;;;;;4954699;28;20078;-86
2021/07/17 12:47:57;;;;;;;19.95;14.43;;;23.80;99.90;;;;;;4939343;28;20062;-88
2021/07/17 12:50:45;;;;;;;22.63;16.67;;;23.60;99.90;;;;;;4933138;29;20067;-86
2021/07/17 12:53:32;;;;;;;23.55;15.48;;;23.10;99.90;;;;;;4953636;28;20054;-86
2021/07/17 12:56:49;;;;;;;19.33;16.17;;;22.80;99.90;;;;;;4940850;28;20069;-86
2021/07/17 12:59:41;;;;;;;19.63;16.02;;;23.00;99.90;;;;;;4948340;28;20427;-87
2021/07/17 13:02:31;;;;;;;20.33;14.15;;;23.20;99.90;;;;;;4934918;28;20039;-88
2021/07/17 13:05:42;;;;;;;23.40;15.20;;;23.60;99.90;;;;;;4946716;28;20051;-89
2021/07/17 13:08:34;;;;;;;68.30;31.85;;;23.80;99.90;;;;;;4942932;28;20122;-91
2021/07/17 13:11:25;;;;;;;18.73;13.57;;;24.00;99.90;;;;;;4937322;29;20052;-89
2021/07/17 13:14:13;;;;;;;18.05;14.20;;;24.10;99.90;;;;;;4942008;28;20111;-91
2021/07/17 13:17:13;;;;;;;20.05;14.68;;;24.10;99.90;;;;;;4949189;28;20145;-90
2021/07/17 13:20:04;;;;;;;19.85;14.32;;;23.80;99.90;;;;;;4950443;29;20048;-89
2021/07/17 13:23:00;;;;;;;18.88;14.40;;;23.70;99.90;;;;;;4941358;29;20043;-90
2021/07/17 13:25:47;;;;;;;22.75;15.00;;;23.50;99.90;;;;;;4927793;29;20055;-88
2021/07/17 13:28:37;;;;;;;23.00;14.70;;;23.30;99.90;;;;;;4949598;28;20457;-88
2021/07/17 13:31:32;;;;;;;20.98;15.43;;;23.60;99.90;;;;;;4933700;28;20059;-90
2021/07/17 13:34:21;;;;;;;25.17;15.93;;;23.40;99.90;;;;;;4926780;28;20044;-88
2021/07/17 13:37:11;;;;;;;25.33;15.25;;;23.10;99.90;;;;;;4965532;28;20115;-88
2021/07/17 13:39:59;;;;;;;19.88;15.60;;;22.80;99.90;;;;;;4947853;28;20055;-89
2021/07/17 13:42:48;;;;;;;21.80;15.75;;;22.60;99.90;;;;;;4939696;29;20130;-90
2021/07/17 13:45:38;;;;;;;23.98;15.20;;;22.50;99.90;;;;;;4932586;29;20480;-88
2021/07/17 13:48:27;;;;;;;19.55;14.00;;;22.80;99.90;;;;;;4962034;28;20091;-90
2021/07/17 13:51:17;;;;;;;19.30;13.82;;;23.40;99.90;;;;;;4938419;28;20066;-89
2021/07/17 13:54:05;;;;;;;21.88;15.02;;;23.70;99.90;;;;;;4950111;29;20083;-88
2021/07/17 13:56:52;;;;;;;17.75;13.43;;;23.50;99.90;;;;;;4943432;28;20051;-87
2021/07/17 13:59:39;;;;;;;19.33;13.50;;;23.40;99.90;;;;;;4947446;28;20043;-89
2021/07/17 14:02:26;;;;;;;21.65;14.45;;;23.50;99.90;;;;;;4933500;29;20198;-90
2021/07/17 14:05:15;;;;;;;19.48;12.63;;;23.60;99.90;;;;;;4930129;29;20056;-89
2021/07/17 14:08:03;;;;;;;15.95;12.82;;;23.80;99.90;;;;;;4945680;28;20052;-89
2021/07/17 14:10:52;;;;;;;18.10;12.85;;;24.00;99.90;;;;;;4965029;28;20046;-89
2021/07/17 14:13:43;;;;;;;17.73;12.55;;;24.40;99.90;;;;;;4962385;28;20062;-92
2021/07/17 14:16:34;;;;;;;20.33;12.25;;;24.90;99.90;;;;;;4930401;29;20088;-89
2021/07/17 14:19:22;;;;;;;17.23;10.70;;;25.60;99.90;;;;;;4943144;28;20131;-89
2021/07/17 14:22:09;;;;;;;14.88;10.70;;;26.60;99.90;;;;;;4963181;28;20043;-89
2021/07/17 14:24:57;;;;;;;14.13;10.85;;;26.90;99.90;;;;;;4958311;28;20105;-89
2021/07/17 14:27:44;;;;;;;18.38;11.95;;;26.20;99.90;;;;;;4964360;28;20043;-88
2021/07/17 14:30:33;;;;;;;15.45;12.07;;;25.30;99.90;;;;;;4945185;28;20133;-89
2021/07/17 14:33:22;;;;;;;16.52;12.90;;;24.40;99.90;;;;;;4952060;28;20058;-88
2021/07/17 14:36:11;;;;;;;19.13;13.13;;;23.70;99.90;;;;;;4944510;28;20055;-87
2021/07/17 14:38:59;;;;;;;21.65;12.95;;;23.30;99.90;;;;;;4940165;28;20097;-89
2021/07/17 14:41:46;;;;;;;19.65;13.13;;;23.00;99.90;;;;;;4944766;29;20106;-90
2021/07/17 14:44:35;;;;;;;16.48;12.98;;;22.90;99.90;;;;;;4948174;28;20055;-90
2021/07/17 14:47:24;;;;;;;16.58;12.20;;;22.80;99.90;;;;;;4948380;28;20404;-89
2021/07/17 14:50:12;;;;;;;20.08;12.48;;;22.70;99.90;;;;;;4952441;28;20122;-89
2021/07/17 14:53:00;;;;;;;16.75;12.88;;;23.00;99.90;;;;;;4940689;28;20139;-88
2021/07/17 14:55:50;;;;;;;16.80;12.40;;;22.80;99.90;;;;;;4929621;28;20075;-89
2021/07/17 14:58:38;;;;;;;20.50;12.88;;;22.80;99.90;;;;;;4928590;28;20052;-89
2021/07/17 15:01:25;;;;;;;20.88;13.43;;;22.60;99.90;;;;;;4949857;28;20122;-88
2021/07/17 15:04:13;;;;;;;14.10;11.50;;;22.60;99.90;;;;;;4965626;28;20106;-90
2021/07/17 15:07:00;;;;;;;12.93;11.45;;;22.90;99.90;;;;;;4944781;28;20050;-89
2021/07/17 15:09:48;;;;;;;15.70;11.65;;;23.30;99.90;;;;;;4959233;28;20058;-91
2021/07/17 15:12:38;;;;;;;14.07;10.93;;;23.80;99.90;;;;;;4958666;28;20066;-92